Time;durP1;ratioP1;P1;durP2;ratioP2;P2;SDS_P1;SDS_P2;PMS_P1;PMS_P2;Temp;Humidity;BMP_temperature;BMP_pressure;BME280_temperature;BME280_humidity;BME280_pressure;Samples;Min_cycle;Max_cycle;Signal;HPM_P1;HPM_P2
2023/10/23 00:00:59;;;;;;;9.98;5.70;;;10.40;99.90;;;;;;4984148;28;20018;-71
2023/10/23 00:03:24;;;;;;;11.05;6.40;;;10.40;99.90;;;;;;4987083;28;20439;-71
2023/10/23 00:05:50;;;;;;;12.07;5.93;;;10.30;99.90;;;;;;4993027;28;20041;-71
2023/10/23 00:08:15;;;;;;;10.80;5.95;;;10.20;99.90;;;;;;4986701;28;20037;-71
2023/10/23 00:10:42;;;;;;;8.63;6.07;;;10.20;99.90;;;;;;4985166;28;20045;-70
2023/10/23 00:13:08;;;;;;;9.45;6.13;;;10.10;99.90;;;;;;4986375;28;20523;-71
2023/10/23 00:15:34;;;;;;;9.77;5.60;;;10.10;99.90;;;;;;4988686;28;20035;-70
2023/10/23 00:17:59;;;;;;;5.93;4.43;;;10.00;99.90;;;;;;4987801;28;20034;-70
2023/10/23 00:20:25;;;;;;;7.47;4.72;;;10.00;99.90;;;;;;4986668;28;20405;-71
2023/10/23 00:22:51;;;;;;;7.10;4.70;;;9.90;99.90;;;;;;4987713;28;20026;-70
2023/10/23 00:25:16;;;;;;;7.30;4.30;;;9.90;99.90;;;;;;4983497;28;21528;-71
2023/10/23 00:27:42;;;;;;;8.43;4.72;;;9.90;99.90;;;;;;4990897;28;20496;-71
2023/10/23 00:30:08;;;;;;;9.63;5.57;;;9.90;99.90;;;;;;4986364;28;20034;-70
2023/10/23 00:32:33;;;;;;;6.93;4.95;;;10.00;99.90;;;;;;4987010;28;20035;-71
2023/10/23 00:34:59;;;;;;;9.45;6.25;;;9.90;99.90;;;;;;4988998;28;20452;-71
2023/10/23 00:37:25;;;;;;;11.80;6.75;;;10.00;99.90;;;;;;4986578;28;20440;-71
2023/10/23 00:39:50;;;;;;;11.85;6.55;;;10.00;99.90;;;;;;4988418;28;20034;-70
2023/10/23 00:42:16;;;;;;;9.27;6.63;;;10.10;99.90;;;;;;4985512;28;20359;-71
2023/10/23 00:44:41;;;;;;;12.00;6.53;;;10.10;99.90;;;;;;4985418;28;20043;-70
2023/10/23 00:47:08;;;;;;;11.98;6.65;;;10.10;99.90;;;;;;4984299;28;20033;-71
2023/10/23 00:49:33;;;;;;;12.00;7.07;;;10.10;99.90;;;;;;4986443;28;20042;-70
2023/10/23 00:52:01;;;;;;;10.95;6.22;;;10.10;99.90;;;;;;4986747;28;20424;-70
2023/10/23 00:54:27;;;;;;;14.27;6.82;;;10.10;99.90;;;;;;4988371;28;20022;-71
2023/10/23 00:56:52;;;;;;;11.30;6.90;;;10.10;99.90;;;;;;4985156;28;20442;-70
2023/10/23 00:59:19;;;;;;;11.95;7.50;;;10.10;99.90;;;;;;4986133;28;20101;-70
2023/10/23 01:01:45;;;;;;;10.45;7.22;;;10.10;99.90;;;;;;4986959;28;20061;-71
2023/10/23 01:04:11;;;;;;;10.80;7.05;;;10.10;99.90;;;;;;4988359;28;20119;-70
2023/10/23 01:06:36;;;;;;;10.30;6.60;;;10.10;99.90;;;;;;4991956;28;20034;-70
2023/10/23 01:09:03;;;;;;;8.85;6.82;;;10.10;99.90;;;;;;4987848;28;20382;-70
2023/10/23 01:11:28;;;;;;;10.13;6.85;;;10.20;99.90;;;;;;4989152;28;20148;-70
2023/10/23 01:13:54;;;;;;;10.75;7.38;;;10.30;99.90;;;;;;4988091;28;20117;-70
2023/10/23 01:16:19;;;;;;;10.35;6.68;;;10.30;99.90;;;;;;4989616;28;20478;-70
2023/10/23 01:18:45;;;;;;;11.00;7.25;;;10.30;99.90;;;;;;4999409;28;20436;-71
2023/10/23 01:21:10;;;;;;;10.60;7.68;;;10.30;99.90;;;;;;4989604;28;20482;-70
2023/10/23 01:23:36;;;;;;;10.82;6.75;;;10.40;99.90;;;;;;4987739;28;20080;-71
2023/10/23 01:26:03;;;;;;;8.63;7.07;;;10.30;99.90;;;;;;4988646;28;20034;-71
2023/10/23 01:28:28;;;;;;;10.60;6.88;;;10.40;99.90;;;;;;4989134;28;20030;-71
2023/10/23 01:30:54;;;;;;;11.77;7.55;;;10.40;99.90;;;;;;4988887;28;20123;-71
2023/10/23 01:33:19;;;;;;;11.45;7.72;;;10.40;99.90;;;;;;4990429;28;20030;-71
2023/10/23 01:35:45;;;;;;;10.40;7.20;;;10.40;99.90;;;;;;4990163;28;20022;-71
2023/10/23 01:38:13;;;;;;;10.48;7.38;;;10.40;99.90;;;;;;4988152;28;20019;-71
2023/10/23 01:40:39;;;;;;;12.15;7.57;;;10.50;99.90;;;;;;4989815;28;20038;-71
2023/10/23 01:43:04;;;;;;;11.00;7.10;;;10.50;99.90;;;;;;4989499;28;20490;-71
2023/10/23 01:45:30;;;;;;;10.65;7.28;;;10.50;99.90;;;;;;4992514;28;20039;-71
2023/10/23 01:47:56;;;;;;;12.20;7.53;;;10.40;99.90;;;;;;4989830;28;20486;-71
2023/10/23 01:50:21;;;;;;;12.60;8.48;;;10.50;99.90;;;;;;4989433;28;20050;-71
2023/10/23 01:52:47;;;;;;;11.63;7.28;;;10.50;99.90;;;;;;4987777;28;20058;-71
2023/10/23 01:55:12;;;;;;;13.50;7.85;;;10.40;99.90;;;;;;4987623;28;20034;-71
2023/10/23 01:57:38;;;;;;;15.15;8.70;;;10.40;99.90;;;;;;4985904;28;20113;-71
2023/10/23 02:00:05;;;;;;;12.32;8.00;;;10.40;99.90;;;;;;4989461;28;20385;-71
2023/10/23 02:02:33;;;;;;;13.27;8.30;;;10.30;99.90;;;;;;4986190;28;20378;-71
2023/10/23 02:04:59;;;;;;;11.88;8.05;;;10.20;99.90;;;;;;4987967;28;20038;-71
2023/10/23 02:07:27;;;;;;;9.65;7.15;;;10.20;99.90;;;;;;4989374;28;20105;-71
2023/10/23 02:09:53;;;;;;;12.75;7.45;;;10.10;99.90;;;;;;4989985;28;20031;-71
2023/10/23 02:12:18;;;;;;;15.05;8.05;;;10.10;99.90;;;;;;4987609;28;20040;-71
2023/10/23 02:14:44;;;;;;;12.73;7.15;;;10.00;99.90;;;;;;4989377;28;20109;-71
2023/10/23 02:17:09;;;;;;;13.13;7.57;;;10.00;99.90;;;;;;4986537;28;20106;-71
2023/10/23 02:19:35;;;;;;;9.52;6.38;;;10.00;99.90;;;;;;4989452;28;20031;-71
2023/10/23 02:22:00;;;;;;;15.50;7.82;;;9.90;99.90;;;;;;4986038;28;20118;-71
2023/10/23 02:24:26;;;;;;;11.10;7.28;;;9.90;99.90;;;;;;4988329;28;20117;-71
2023/10/23 02:26:52;;;;;;;12.13;7.25;;;9.90;99.90;;;;;;4989691;28;20062;-71
2023/10/23 02:29:17;;;;;;;12.13;6.72;;;9.80;99.90;;;;;;4988256;28;20490;-71
2023/10/23 02:31:43;;;;;;;11.13;7.35;;;9.80;99.90;;;;;;4986650;28;20026;-71
2023/10/23 02:34:08;;;;;;;9.80;7.15;;;9.70;99.90;;;;;;4988533;28;20043;-71
2023/10/23 02:36:34;;;;;;;13.68;7.43;;;9.70;99.90;;;;;;4987560;28;20022;-71
2023/10/23 02:39:00;;;;;;;12.63;7.95;;;9.60;99.90;;;;;;4989051;28;20061;-71
2023/10/23 02:41:29;;;;;;;90.35;7.45;;;9.60;99.90;;;;;;4989723;28;20035;-71
2023/10/23 02:43:55;;;;;;;8.70;5.45;;;9.50;99.90;;;;;;4984341;28;20050;-71
2023/10/23 02:46:20;;;;;;;8.75;6.30;;;9.40;99.90;;;;;;4991420;28;20481;-71
2023/10/23 02:48:46;;;;;;;9.48;6.10;;;9.40;99.90;;;;;;4989115;28;20031;-71
2023/10/23 02:51:12;;;;;;;10.70;6.70;;;9.30;99.90;;;;;;4989261;28;20058;-71
2023/10/23 02:53:38;;;;;;;23.00;7.85;;;9.40;99.90;;;;;;4988815;28;20031;-71
2023/10/23 02:56:09;;;;;;;16.27;8.55;;;9.40;99.90;;;;;;4988882;28;20130;-71
2023/10/23 02:58:35;;;;;;;15.13;8.55;;;9.40;99.90;;;;;;4989992;28;20815;-71
2023/10/23 03:01:01;;;;;;;15.90;8.90;;;9.40;99.90;;;;;;4986357;28;20033;-71
2023/10/23 03:03:26;;;;;;;18.15;9.18;;;9.50;99.90;;;;;;4986617;28;20327;-71
2023/10/23 03:05:52;;;;;;;15.75;9.50;;;9.50;99.90;;;;;;4985534;28;20076;-71
2023/10/23 03:08:17;;;;;;;13.90;8.90;;;9.60;99.90;;;;;;4989962;28;20027;-71
2023/10/23 03:10:43;;;;;;;19.73;9.57;;;9.60;99.90;;;;;;4988628;28;20038;-71
2023/10/23 03:13:09;;;;;;;15.95;9.25;;;9.70;99.90;;;;;;4988586;28;20030;-71
2023/10/23 03:15:36;;;;;;;18.23;9.18;;;9.70;99.90;;;;;;4988676;28;20070;-71
2023/10/23 03:18:03;;;;;;;30.10;8.88;;;9.70;99.90;;;;;;4988995;28;20026;-71
2023/10/23 03:20:29;;;;;;;19.85;8.98;;;9.80;99.90;;;;;;4988575;28;20068;-71
2023/10/23 03:22:55;;;;;;;20.75;9.15;;;9.80;99.90;;;;;;4987724;28;20037;-71
2023/10/23 03:25:20;;;;;;;14.65;9.18;;;9.80;99.90;;;;;;4986591;28;20057;-71
2023/10/23 03:27:46;;;;;;;16.30;8.43;;;9.80;99.90;;;;;;4987012;28;20041;-71
2023/10/23 03:30:12;;;;;;;19.65;9.45;;;9.90;99.90;;;;;;4986592;28;20030;-71
2023/10/23 03:32:37;;;;;;;15.35;9.30;;;9.90;99.90;;;;;;4984721;28;20069;-71
2023/10/23 03:35:03;;;;;;;13.45;8.32;;;9.90;99.90;;;;;;4988794;28;20478;-71
2023/10/23 03:37:29;;;;;;;18.17;9.70;;;9.90;99.90;;;;;;4987518;28;20022;-71
2023/10/23 03:39:55;;;;;;;18.35;9.43;;;10.00;99.90;;;;;;4980476;28;20026;-71
2023/10/23 03:42:20;;;;;;;16.20;9.05;;;9.90;99.90;;;;;;4987285;28;20034;-71
2023/10/23 03:44:47;;;;;;;17.90;8.85;;;10.00;99.90;;;;;;5018342;28;20050;-71
2023/10/23 03:47:12;;;;;;;15.35;9.15;;;10.00;99.90;;;;;;4986833;28;20117;-71
2023/10/23 03:49:38;;;;;;;12.88;8.35;;;10.00;99.90;;;;;;4985981;28;20037;-71
2023/10/23 03:52:03;;;;;;;13.35;8.90;;;10.00;99.90;;;;;;4982708;28;20101;-71
2023/10/23 03:54:29;;;;;;;13.40;8.55;;;10.00;99.90;;;;;;4982058;28;20509;-71
2023/10/23 03:56:54;;;;;;;15.38;9.07;;;10.00;99.90;;;;;;4986722;28;20097;-71
2023/10/23 03:59:20;;;;;;;18.05;9.55;;;10.00;99.90;;;;;;4988089;28;20509;-71
2023/10/23 04:01:46;;;;;;;11.98;8.40;;;10.00;99.90;;;;;;5046542;28;20024;-71
2023/10/23 04:04:12;;;;;;;13.48;8.75;;;10.00;99.90;;;;;;4986146;28;20050;-71
2023/10/23 04:06:40;;;;;;;14.82;8.98;;;10.00;99.90;;;;;;4980896;28;20113;-71
2023/10/23 04:09:06;;;;;;;15.90;8.23;;;10.00;99.90;;;;;;4987625;28;20038;-71
2023/10/23 04:11:32;;;;;;;13.57;8.38;;;10.00;99.90;;;;;;4991941;28;20430;-71
2023/10/23 04:13:57;;;;;;;12.60;8.48;;;10.00;99.90;;;;;;4985755;28;20057;-71
2023/10/23 04:16:23;;;;;;;14.10;8.73;;;9.90;99.90;;;;;;4987673;28;20027;-71
2023/10/23 04:18:48;;;;;;;12.52;8.13;;;9.90;99.90;;;;;;4983248;28;20038;-71
2023/10/23 04:21:14;;;;;;;13.85;8.80;;;9.90;99.90;;;;;;5005133;28;20021;-71
2023/10/23 04:23:40;;;;;;;16.38;8.48;;;9.90;99.90;;;;;;5020751;28;20043;-71
2023/10/23 04:26:07;;;;;;;11.15;7.82;;;9.90;99.90;;;;;;4986456;28;20031;-71
2023/10/23 04:28:33;;;;;;;28.63;9.32;;;9.90;99.90;;;;;;4988734;28;20034;-71
2023/10/23 04:30:58;;;;;;;17.58;8.95;;;9.90;99.90;;;;;;4983446;28;20045;-71
2023/10/23 04:33:25;;;;;;;17.95;9.05;;;9.90;99.90;;;;;;4988163;28;20486;-71
2023/10/23 04:35:57;;;;;;;23.38;10.15;;;9.90;99.90;;;;;;4986468;28;20045;-71
2023/10/23 04:38:24;;;;;;;24.45;9.52;;;9.90;99.90;;;;;;4990768;28;20103;-71
2023/10/23 04:40:50;;;;;;;17.90;9.15;;;9.90;99.90;;;;;;4991072;28;20037;-71
2023/10/23 04:43:16;;;;;;;25.85;9.60;;;9.90;99.90;;;;;;4990410;28;20127;-71
2023/10/23 04:45:42;;;;;;;18.92;8.43;;;9.90;99.90;;;;;;4988083;28;20103;-71
2023/10/23 04:48:08;;;;;;;21.45;8.60;;;9.90;99.90;;;;;;4996708;28;20064;-71
2023/10/23 04:50:35;;;;;;;18.65;8.13;;;9.80;99.90;;;;;;4987764;28;20030;-71
2023/10/23 04:53:01;;;;;;;21.65;7.65;;;9.80;99.90;;;;;;4990726;28;20034;-71
2023/10/23 04:55:33;;;;;;;20.98;7.95;;;9.70;99.90;;;;;;4991287;28;20054;-71
2023/10/23 04:58:00;;;;;;;19.80;7.97;;;9.70;99.90;;;;;;4986211;28;20034;-71
2023/10/23 05:00:26;;;;;;;51.10;8.60;;;9.70;99.90;;;;;;4988727;28;20638;-71
2023/10/23 05:02:52;;;;;;;34.58;8.02;;;9.60;99.90;;;;;;4990678;28;20536;-71
2023/10/23 05:05:18;;;;;;;43.90;9.20;;;9.60;99.90;;;;;;4990310;28;20118;-71
2023/10/23 05:07:43;;;;;;;15.93;6.72;;;9.60;99.90;;;;;;4995063;28;20398;-71
2023/10/23 05:10:09;;;;;;;32.80;7.72;;;9.50;99.90;;;;;;4997172;28;20037;-71
2023/10/23 05:12:35;;;;;;;20.58;6.80;;;9.50;99.90;;;;;;4987778;28;20494;-71
2023/10/23 05:15:02;;;;;;;28.30;7.00;;;9.40;99.90;;;;;;4991189;28;20070;-71
2023/10/23 05:17:28;;;;;;;57.50;10.32;;;9.50;99.90;;;;;;4985728;28;20034;-72
2023/10/23 05:19:53;;;;;;;27.65;7.13;;;9.40;99.90;;;;;;4986218;28;20099;-69
2023/10/23 05:22:19;;;;;;;20.15;7.72;;;9.40;99.90;;;;;;4984808;28;20026;-71
2023/10/23 05:24:48;;;;;;;29.70;6.80;;;9.40;99.90;;;;;;4989846;28;20104;-71
2023/10/23 05:27:14;;;;;;;22.88;6.45;;;9.40;99.90;;;;;;4987945;28;20034;-71
2023/10/23 05:29:40;;;;;;;27.92;6.47;;;9.40;99.90;;;;;;4986067;28;20042;-71
2023/10/23 05:32:07;;;;;;;17.38;6.95;;;9.30;99.90;;;;;;4993166;28;20027;-71
2023/10/23 05:34:33;;;;;;;29.35;6.85;;;9.30;99.90;;;;;;4988310;28;20382;-71
2023/10/23 05:36:58;;;;;;;25.88;6.70;;;9.30;99.90;;;;;;4987357;28;20030;-71
2023/10/23 05:39:24;;;;;;;36.22;6.93;;;9.20;99.90;;;;;;4986667;28;20038;-71
2023/10/23 05:41:49;;;;;;;15.13;5.78;;;9.20;99.90;;;;;;4986181;28;20031;-72
2023/10/23 05:44:15;;;;;;;16.05;5.85;;;9.20;99.90;;;;;;4985885;28;20399;-71
2023/10/23 05:46:40;;;;;;;11.27;5.68;;;9.20;99.90;;;;;;4989120;28;20069;-71
2023/10/23 05:49:06;;;;;;;14.73;6.10;;;9.10;99.90;;;;;;4989012;28;20058;-71
2023/10/23 05:51:31;;;;;;;23.58;5.95;;;9.00;99.90;;;;;;4984524;28;20023;-70
2023/10/23 05:53:57;;;;;;;23.63;6.20;;;9.00;99.90;;;;;;4989982;28;20037;-71
2023/10/23 05:56:23;;;;;;;35.92;7.05;;;8.90;99.90;;;;;;4986860;28;20732;-71
2023/10/23 05:58:50;;;;;;;81.22;9.20;;;8.90;99.90;;;;;;4988113;28;20034;-71
2023/10/23 06:01:16;;;;;;;25.88;7.20;;;8.90;99.90;;;;;;4991133;28;20030;-70
2023/10/23 06:03:42;;;;;;;18.55;6.68;;;8.90;99.90;;;;;;4989072;28;20041;-71
2023/10/23 06:06:07;;;;;;;21.70;7.10;;;8.90;99.90;;;;;;4987160;28;20046;-71
2023/10/23 06:08:33;;;;;;;26.13;7.20;;;8.90;99.90;;;;;;4985185;28;20412;-69
2023/10/23 06:11:01;;;;;;;18.23;6.60;;;8.90;99.90;;;;;;4989394;28;20035;-69
2023/10/23 06:13:27;;;;;;;19.48;7.57;;;8.90;99.90;;;;;;4984348;28;20048;-71
2023/10/23 06:15:53;;;;;;;20.10;7.20;;;8.90;99.90;;;;;;4987165;28;20467;-70
2023/10/23 06:18:19;;;;;;;19.98;7.13;;;9.00;99.90;;;;;;4987281;28;20516;-70
2023/10/23 06:20:45;;;;;;;17.23;7.05;;;9.00;99.90;;;;;;4988154;28;20106;-69
2023/10/23 06:23:10;;;;;;;19.73;6.63;;;9.00;99.90;;;;;;4987238;28;20022;-71
2023/10/23 06:25:36;;;;;;;13.40;6.75;;;8.90;99.90;;;;;;4984000;28;20145;-71
2023/10/23 06:28:03;;;;;;;31.42;7.57;;;8.90;99.90;;;;;;4986743;28;20030;-70
2023/10/23 06:30:29;;;;;;;13.57;6.90;;;8.90;99.90;;;;;;4989349;28;20023;-71
2023/10/23 06:32:54;;;;;;;20.83;6.40;;;8.90;99.90;;;;;;4988015;28;20394;-71
2023/10/23 06:35:20;;;;;;;19.13;6.75;;;8.90;99.90;;;;;;4986495;28;20065;-71
2023/10/23 06:37:47;;;;;;;16.75;6.30;;;8.90;99.90;;;;;;4990046;28;20031;-71
2023/10/23 06:40:12;;;;;;;15.63;6.78;;;8.90;99.90;;;;;;4980694;28;20022;-72
2023/10/23 06:42:38;;;;;;;20.33;7.15;;;8.90;99.90;;;;;;5001711;28;20050;-71
2023/10/23 06:45:05;;;;;;;26.55;7.20;;;8.90;99.90;;;;;;4984953;28;20117;-71
2023/10/23 06:47:30;;;;;;;34.65;8.05;;;9.00;99.90;;;;;;4990243;28;20030;-71
2023/10/23 06:49:56;;;;;;;15.07;7.00;;;9.00;99.90;;;;;;4979316;28;20536;-71
2023/10/23 06:52:21;;;;;;;25.95;7.43;;;9.00;99.90;;;;;;4985920;28;20034;-70
2023/10/23 06:54:47;;;;;;;31.08;7.60;;;9.00;99.90;;;;;;4992858;28;20042;-70
2023/10/23 06:57:12;;;;;;;21.70;7.85;;;9.10;99.90;;;;;;4989331;28;20018;-70
2023/10/23 06:59:38;;;;;;;28.17;7.90;;;9.10;99.90;;;;;;4988945;28;20094;-70
2023/10/23 07:02:03;;;;;;;15.23;8.35;;;9.10;99.90;;;;;;4988257;28;20463;-70
2023/10/23 07:04:29;;;;;;;17.77;7.82;;;9.10;99.90;;;;;;4982858;28;20490;-70
2023/10/23 07:06:55;;;;;;;21.25;7.55;;;9.10;99.90;;;;;;4980775;28;20029;-70
2023/10/23 07:09:21;;;;;;;19.58;8.43;;;9.20;99.90;;;;;;4987089;28;20030;-70
2023/10/23 07:11:51;;;;;;;16.85;7.85;;;9.20;99.90;;;;;;4987180;28;20026;-70
2023/10/23 07:14:16;;;;;;;26.75;8.05;;;9.30;99.90;;;;;;4982372;28;20113;-70
2023/10/23 07:16:42;;;;;;;16.90;8.35;;;9.30;99.90;;;;;;4988743;28;20110;-69
2023/10/23 07:19:08;;;;;;;23.35;8.15;;;9.30;99.90;;;;;;4982612;28;20109;-69
2023/10/23 07:21:35;;;;;;;15.40;7.95;;;9.30;99.90;;;;;;4986837;28;20030;-69
2023/10/23 07:24:01;;;;;;;25.98;8.05;;;9.40;99.90;;;;;;4983854;28;20034;-70
2023/10/23 07:26:27;;;;;;;42.92;11.13;;;9.40;99.90;;;;;;4980528;28;20098;-69
2023/10/23 07:28:52;;;;;;;24.42;8.95;;;9.50;99.90;;;;;;4987794;28;20045;-71
2023/10/23 07:31:18;;;;;;;23.90;8.65;;;9.40;99.90;;;;;;4985585;28;20075;-71
2023/10/23 07:33:44;;;;;;;21.50;9.00;;;9.40;99.90;;;;;;4982400;28;20034;-70
2023/10/23 07:36:10;;;;;;;14.27;7.55;;;9.40;99.90;;;;;;4983519;28;20058;-70
2023/10/23 07:38:40;;;;;;;15.07;8.30;;;9.50;99.90;;;;;;5005062;27;20026;-70
2023/10/23 07:41:06;;;;;;;22.10;8.68;;;9.50;99.90;;;;;;4981726;28;20549;-69
2023/10/23 07:43:32;;;;;;;19.67;8.05;;;9.60;99.90;;;;;;4983438;28;20062;-70
2023/10/23 07:46:02;;;;;;;18.92;9.27;;;9.70;99.90;;;;;;4986618;28;20117;-70
2023/10/23 07:48:28;;;;;;;22.20;8.38;;;9.70;99.90;;;;;;4984571;28;20042;-70
2023/10/23 07:50:56;;;;;;;18.83;9.07;;;9.80;99.90;;;;;;4984827;28;20030;-69
2023/10/23 07:53:22;;;;;;;14.35;7.95;;;9.80;99.90;;;;;;4978147;28;20027;-70
2023/10/23 07:55:47;;;;;;;17.45;9.07;;;9.80;99.90;;;;;;4984044;28;20029;-70
2023/10/23 07:58:13;;;;;;;19.20;8.57;;;9.90;99.90;;;;;;4987436;28;20026;-71
2023/10/23 08:00:38;;;;;;;17.85;8.68;;;9.90;99.90;;;;;;4976733;28;20334;-72
2023/10/23 08:03:04;;;;;;;21.27;9.05;;;9.90;99.90;;;;;;4979168;28;20118;-72
2023/10/23 08:05:30;;;;;;;28.05;8.70;;;10.00;99.90;;;;;;4987987;28;20045;-72
2023/10/23 08:07:55;;;;;;;103.45;12.85;;;10.10;99.90;;;;;;4986553;28;20026;-72
2023/10/23 08:10:21;;;;;;;42.63;9.63;;;10.10;99.90;;;;;;4984167;28;20041;-72
2023/10/23 08:12:47;;;;;;;30.90;8.90;;;10.10;99.90;;;;;;4973212;28;20092;-72
2023/10/23 08:15:14;;;;;;;17.75;10.00;;;10.20;99.90;;;;;;4985374;28;20490;-72
2023/10/23 08:17:40;;;;;;;16.52;9.35;;;10.30;99.90;;;;;;4985524;28;20057;-72
2023/10/23 08:20:07;;;;;;;15.02;9.32;;;10.30;99.90;;;;;;4989953;28;20098;-72
2023/10/23 08:22:32;;;;;;;82.18;12.57;;;10.40;99.90;;;;;;4991786;28;20034;-72
2023/10/23 08:24:58;;;;;;;42.42;12.23;;;10.40;99.90;;;;;;4984736;28;20141;-72
2023/10/23 08:27:24;;;;;;;28.45;11.02;;;10.50;99.90;;;;;;4988952;28;20443;-72
2023/10/23 08:29:50;;;;;;;35.03;12.63;;;10.50;99.90;;;;;;4992448;28;20551;-72
2023/10/23 08:32:16;;;;;;;95.38;16.25;;;10.50;99.90;;;;;;5001895;28;20029;-73
2023/10/23 08:34:42;;;;;;;48.03;13.82;;;10.60;99.90;;;;;;4993936;28;20038;-72
2023/10/23 08:37:07;;;;;;;23.08;11.35;;;10.60;99.90;;;;;;4999746;28;20037;-73
2023/10/23 08:39:33;;;;;;;35.97;13.23;;;10.60;99.90;;;;;;5000479;28;20031;-73
2023/10/23 08:42:00;;;;;;;24.23;13.52;;;10.60;99.90;;;;;;4995229;28;20071;-73
2023/10/23 08:44:26;;;;;;;23.63;13.25;;;10.60;99.90;;;;;;4993344;28;20107;-72
2023/10/23 08:46:52;;;;;;;26.90;12.60;;;10.70;99.90;;;;;;4981264;28;20023;-72
2023/10/23 08:49:18;;;;;;;20.63;11.80;;;10.70;99.90;;;;;;4982302;28;20033;-71
2023/10/23 08:51:48;;;;;;;22.10;12.98;;;10.70;99.90;;;;;;4986749;28;20023;-72
2023/10/23 08:54:17;;;;;;;28.85;13.40;;;10.80;99.90;;;;;;4979486;28;20088;-72
2023/10/23 08:56:44;;;;;;;26.92;14.73;;;10.80;99.90;;;;;;4984569;28;20030;-72
2023/10/23 08:59:13;;;;;;;24.83;13.95;;;10.80;99.90;;;;;;4996185;28;20060;-72
2023/10/23 09:01:38;;;;;;;22.70;13.02;;;10.80;99.90;;;;;;4992956;28;20432;-72
2023/10/23 09:04:05;;;;;;;22.92;13.02;;;10.80;99.90;;;;;;4987477;28;20034;-71
2023/10/23 09:06:31;;;;;;;29.90;15.45;;;10.90;99.90;;;;;;4989610;28;20030;-72
2023/10/23 09:08:56;;;;;;;25.75;14.63;;;10.90;99.90;;;;;;4987747;28;20077;-72
2023/10/23 09:11:37;;;;;;;27.13;15.10;;;11.00;99.90;;;;;;4984489;28;20034;-71
2023/10/23 09:14:04;;;;;;;30.75;18.60;;;11.10;99.90;;;;;;4987325;28;20042;-72
2023/10/23 09:16:29;;;;;;;32.17;16.73;;;11.10;99.90;;;;;;4998379;28;20034;-71
2023/10/23 09:18:55;;;;;;;29.73;17.17;;;11.20;99.90;;;;;;4993547;28;20133;-71
2023/10/23 09:21:22;;;;;;;30.80;17.23;;;11.30;99.90;;;;;;4992576;28;20026;-71
2023/10/23 09:23:55;;;;;;;26.33;17.77;;;11.30;99.90;;;;;;4991140;28;20034;-72
2023/10/23 09:26:22;;;;;;;26.30;16.65;;;11.40;99.90;;;;;;4988951;28;20474;-72
2023/10/23 09:28:49;;;;;;;29.63;16.20;;;11.40;99.90;;;;;;4997388;28;20026;-72
2023/10/23 09:31:16;;;;;;;30.20;18.83;;;11.50;99.90;;;;;;4999838;28;20034;-72
2023/10/23 09:33:46;;;;;;;28.67;18.60;;;11.60;99.90;;;;;;4995139;28;20031;-72
2023/10/23 09:36:13;;;;;;;32.40;19.48;;;11.70;99.90;;;;;;4984005;28;20514;-72
2023/10/23 09:38:42;;;;;;;26.33;17.52;;;11.80;99.90;;;;;;4996145;28;20041;-73
2023/10/23 09:41:11;;;;;;;28.58;18.55;;;11.90;99.90;;;;;;5001336;28;20029;-73
2023/10/23 09:43:45;;;;;;;28.70;16.92;;;12.10;99.90;;;;;;4993069;28;20043;-73
2023/10/23 09:46:12;;;;;;;26.52;16.92;;;12.20;99.90;;;;;;4990818;28;20027;-72
2023/10/23 09:48:40;;;;;;;26.70;16.85;;;12.30;99.90;;;;;;4992209;28;20037;-73
2023/10/23 09:51:11;;;;;;;26.55;15.13;;;12.40;99.90;;;;;;5005084;28;20026;-73
2023/10/23 09:53:37;;;;;;;22.90;13.15;;;12.50;99.90;;;;;;4976021;28;20072;-73
2023/10/23 09:56:06;;;;;;;24.80;12.90;;;12.50;99.90;;;;;;4999845;28;20474;-73
2023/10/23 09:58:35;;;;;;;21.45;11.13;;;12.60;99.90;;;;;;4990937;28;20054;-73
2023/10/23 10:01:05;;;;;;;17.73;10.45;;;12.60;99.90;;;;;;4990318;28;20026;-72
2023/10/23 10:03:34;;;;;;;17.88;11.07;;;12.70;99.90;;;;;;4990200;28;20453;-72
2023/10/23 10:06:09;;;;;;;21.10;10.90;;;12.70;99.90;;;;;;4985171;28;20027;-73
2023/10/23 10:08:40;;;;;;;18.52;9.40;;;12.80;99.90;;;;;;4982745;28;20030;-70
2023/10/23 10:11:07;;;;;;;16.20;7.00;;;12.90;99.90;;;;;;4988792;28;20033;-72
2023/10/23 10:13:35;;;;;;;15.85;7.70;;;12.90;99.90;;;;;;4989110;28;20429;-72
2023/10/23 10:16:04;;;;;;;15.07;7.63;;;12.90;99.90;;;;;;4987501;28;20084;-72
2023/10/23 10:18:30;;;;;;;12.80;7.88;;;13.00;99.90;;;;;;4983562;28;20035;-72
2023/10/23 10:21:00;;;;;;;19.45;8.63;;;13.10;99.90;;;;;;4988967;28;20398;-72
2023/10/23 10:23:28;;;;;;;20.42;8.60;;;13.20;99.90;;;;;;4988678;28;20154;-72
2023/10/23 10:25:54;;;;;;;12.02;6.28;;;13.30;99.90;;;;;;4996303;28;20038;-71
2023/10/23 10:28:25;;;;;;;15.40;6.97;;;13.50;99.90;;;;;;4984092;28;20037;-71
2023/10/23 10:30:51;;;;;;;14.03;6.33;;;13.50;99.90;;;;;;4989580;28;20109;-73
2023/10/23 10:33:31;;;;;;;19.45;6.82;;;13.50;99.90;;;;;;4986695;28;20142;-73
2023/10/23 10:35:56;;;;;;;13.95;6.82;;;13.60;99.90;;;;;;4987525;28;20023;-73
2023/10/23 10:38:23;;;;;;;13.55;5.28;;;13.60;99.90;;;;;;4986860;28;20026;-73
2023/10/23 10:40:56;;;;;;;17.02;5.13;;;13.60;99.90;;;;;;5001333;28;20113;-73
2023/10/23 10:43:32;;;;;;;11.80;4.32;;;13.70;99.90;;;;;;4983089;28;20050;-73
2023/10/23 10:45:59;;;;;;;13.88;4.57;;;13.70;99.90;;;;;;4981397;28;20055;-73
2023/10/23 10:48:39;;;;;;;16.25;5.35;;;13.80;99.90;;;;;;4988317;28;20053;-73
2023/10/23 10:51:05;;;;;;;17.85;5.07;;;13.90;99.90;;;;;;4985413;28;20405;-73
2023/10/23 10:53:31;;;;;;;13.95;4.75;;;14.00;99.90;;;;;;4987867;28;20027;-73
2023/10/23 10:55:56;;;;;;;10.85;3.85;;;14.10;99.90;;;;;;4982187;28;20409;-73
2023/10/23 10:58:24;;;;;;;18.27;4.00;;;14.20;99.90;;;;;;4986175;28;20029;-73
2023/10/23 11:00:50;;;;;;;13.00;4.43;;;14.30;99.90;;;;;;4985792;28;20042;-73
2023/10/23 11:03:17;;;;;;;11.52;3.63;;;14.40;99.90;;;;;;4980793;28;20083;-73
2023/10/23 11:05:46;;;;;;;6.55;2.38;;;14.40;99.90;;;;;;4983683;28;20046;-72
2023/10/23 11:08:12;;;;;;;6.40;2.22;;;14.50;99.90;;;;;;4983157;28;20038;-73
2023/10/23 11:10:38;;;;;;;11.73;2.42;;;14.40;99.90;;;;;;4984743;28;20165;-72
2023/10/23 11:13:05;;;;;;;10.68;2.83;;;14.50;99.90;;;;;;4991164;28;21185;-73
2023/10/23 11:15:31;;;;;;;8.27;2.55;;;14.50;99.90;;;;;;5069878;28;20037;-73
2023/10/23 11:17:56;;;;;;;9.13;2.47;;;14.60;99.90;;;;;;4987761;28;20406;-73
2023/10/23 11:20:30;;;;;;;10.80;2.95;;;14.60;99.90;;;;;;4986194;28;20034;-73
2023/10/23 11:22:56;;;;;;;9.55;2.60;;;14.70;99.90;;;;;;4985423;28;20027;-72
2023/10/23 11:25:21;;;;;;;13.32;2.72;;;14.70;99.90;;;;;;4987415;28;20041;-71
2023/10/23 11:27:51;;;;;;;10.48;2.85;;;14.80;99.90;;;;;;4986408;28;20023;-71
2023/10/23 11:30:16;;;;;;;8.77;2.15;;;14.80;99.90;;;;;;4987822;28;20087;-72
2023/10/23 11:32:44;;;;;;;13.15;2.58;;;14.90;99.90;;;;;;4987427;28;20551;-72
2023/10/23 11:35:10;;;;;;;11.38;3.47;;;15.00;99.90;;;;;;4986352;28;20434;-72
2023/10/23 11:37:40;;;;;;;9.00;2.15;;;15.00;99.90;;;;;;4984055;28;20041;-71
2023/10/23 11:40:08;;;;;;;10.77;2.67;;;15.20;99.90;;;;;;4983178;28;20023;-72
2023/10/23 11:42:42;;;;;;;9.25;2.75;;;15.20;99.90;;;;;;4991361;28;20046;-72
2023/10/23 11:45:09;;;;;;;9.48;2.35;;;15.30;99.90;;;;;;4990674;28;20045;-72
2023/10/23 11:47:37;;;;;;;12.00;2.58;;;15.40;99.90;;;;;;4987585;28;20375;-72
2023/10/23 11:50:06;;;;;;;11.65;2.00;;;15.30;99.90;;;;;;4988958;28;20037;-72
2023/10/23 11:52:33;;;;;;;11.23;2.08;;;15.30;99.90;;;;;;4992848;28;20027;-72
2023/10/23 11:54:59;;;;;;;9.45;2.10;;;15.40;99.90;;;;;;4984157;28;20105;-72
2023/10/23 11:57:24;;;;;;;8.93;1.70;;;15.50;99.90;;;;;;5003663;28;20497;-72
2023/10/23 11:59:50;;;;;;;10.13;1.77;;;15.50;99.90;;;;;;4993274;28;20034;-71
2023/10/23 12:02:15;;;;;;;13.40;2.92;;;15.50;99.90;;;;;;4985393;28;20033;-72
2023/10/23 12:04:41;;;;;;;7.25;2.15;;;15.60;99.90;;;;;;4980984;28;20038;-71
2023/10/23 12:07:07;;;;;;;9.18;2.00;;;15.60;99.90;;;;;;4988670;28;20470;-71
2023/10/23 12:09:32;;;;;;;12.18;3.53;;;15.70;99.90;;;;;;4983434;28;20087;-71
2023/10/23 12:11:58;;;;;;;6.00;1.67;;;15.70;99.90;;;;;;4989517;28;20030;-71
2023/10/23 12:14:23;;;;;;;7.47;1.50;;;15.70;99.90;;;;;;4994145;28;20070;-71
2023/10/23 12:16:49;;;;;;;7.70;1.90;;;15.70;99.90;;;;;;4993175;28;20489;-71
2023/10/23 12:19:15;;;;;;;6.25;2.13;;;15.70;99.90;;;;;;4995398;28;20386;-71
2023/10/23 12:21:40;;;;;;;12.13;1.90;;;15.70;99.90;;;;;;5002439;28;20030;-71
2023/10/23 12:24:06;;;;;;;10.90;2.15;;;15.70;99.90;;;;;;4984847;28;20129;-71
2023/10/23 12:26:32;;;;;;;11.15;2.47;;;15.70;99.90;;;;;;4983511;28;20412;-71
2023/10/23 12:28:59;;;;;;;7.50;1.95;;;15.70;99.90;;;;;;4990843;28;20054;-71
2023/10/23 12:31:26;;;;;;;6.93;2.20;;;15.60;99.90;;;;;;4992792;28;20113;-70
2023/10/23 12:33:52;;;;;;;6.80;1.83;;;15.60;99.90;;;;;;4985158;28;20054;-71
2023/10/23 12:36:17;;;;;;;6.53;1.92;;;15.60;99.90;;;;;;4990125;28;20065;-70